sensor_id;sensor_type;location;lat;lon;timestamp;P1;durP1;ratioP1;P2;durP2;ratioP2
8596;SDS011;4336;49.310;8.646;2023-12-29T00:01:18;13.80;;;12.50;;
8596;SDS011;4336;49.310;8.646;2023-12-29T00:03:44;13.50;;;12.10;;
8596;SDS011;4336;49.310;8.646;2023-12-29T00:06:10;15.20;;;13.73;;
8596;SDS011;4336;49.310;8.646;2023-12-29T00:08:36;15.70;;;13.80;;
8596;SDS011;4336;49.310;8.646;2023-12-29T00:11:03;16.07;;;14.30;;
8596;SDS011;4336;49.310;8.646;2023-12-29T00:13:29;15.90;;;14.40;;
8596;SDS011;4336;49.310;8.646;2023-12-29T00:15:56;15.50;;;13.70;;
8596;SDS011;4336;49.310;8.646;2023-12-29T00:18:23;14.57;;;13.13;;
8596;SDS011;4336;49.310;8.646;2023-12-29T00:20:49;16.53;;;14.80;;
8596;SDS011;4336;49.310;8.646;2023-12-29T00:23:15;18.67;;;16.87;;
8596;SDS011;4336;49.310;8.646;2023-12-29T00:25:41;22.67;;;17.90;;
8596;SDS011;4336;49.310;8.646;2023-12-29T00:28:08;16.90;;;15.30;;
8596;SDS011;4336;49.310;8.646;2023-12-29T00:30:37;15.47;;;14.07;;
8596;SDS011;4336;49.310;8.646;2023-12-29T00:33:04;15.57;;;13.93;;
8596;SDS011;4336;49.310;8.646;2023-12-29T00:35:30;15.83;;;14.23;;
8596;SDS011;4336;49.310;8.646;2023-12-29T00:37:56;16.00;;;14.40;;
8596;SDS011;4336;49.310;8.646;2023-12-29T00:40:23;15.33;;;13.83;;
8596;SDS011;4336;49.310;8.646;2023-12-29T00:42:49;15.47;;;14.03;;
8596;SDS011;4336;49.310;8.646;2023-12-29T00:45:15;15.40;;;13.80;;
8596;SDS011;4336;49.310;8.646;2023-12-29T00:47:41;14.47;;;13.03;;
8596;SDS011;4336;49.310;8.646;2023-12-29T00:50:07;15.80;;;14.17;;
8596;SDS011;4336;49.310;8.646;2023-12-29T00:52:34;15.87;;;14.37;;
8596;SDS011;4336;49.310;8.646;2023-12-29T00:55:01;14.60;;;12.37;;
8596;SDS011;4336;49.310;8.646;2023-12-29T00:57:28;15.07;;;13.53;;
8596;SDS011;4336;49.310;8.646;2023-12-29T00:59:54;14.77;;;13.17;;
8596;SDS011;4336;49.310;8.646;2023-12-29T01:02:20;14.77;;;13.27;;
8596;SDS011;4336;49.310;8.646;2023-12-29T01:04:48;16.63;;;14.30;;
8596;SDS011;4336;49.310;8.646;2023-12-29T01:07:14;16.83;;;15.33;;
8596;SDS011;4336;49.310;8.646;2023-12-29T01:09:40;13.50;;;12.17;;
8596;SDS011;4336;49.310;8.646;2023-12-29T01:12:06;15.33;;;13.33;;
8596;SDS011;4336;49.310;8.646;2023-12-29T01:14:33;15.67;;;14.10;;
8596;SDS011;4336;49.310;8.646;2023-12-29T01:16:59;15.67;;;13.57;;
8596;SDS011;4336;49.310;8.646;2023-12-29T01:19:25;15.30;;;12.97;;
8596;SDS011;4336;49.310;8.646;2023-12-29T01:21:51;13.63;;;12.20;;
8596;SDS011;4336;49.310;8.646;2023-12-29T01:24:17;14.23;;;12.73;;
8596;SDS011;4336;49.310;8.646;2023-12-29T01:26:43;14.57;;;13.07;;
8596;SDS011;4336;49.310;8.646;2023-12-29T01:29:09;15.60;;;14.10;;
8596;SDS011;4336;49.310;8.646;2023-12-29T01:31:36;15.47;;;13.97;;
8596;SDS011;4336;49.310;8.646;2023-12-29T01:34:02;15.43;;;13.90;;
8596;SDS011;4336;49.310;8.646;2023-12-29T01:36:28;14.67;;;13.23;;
8596;SDS011;4336;49.310;8.646;2023-12-29T01:38:54;15.70;;;13.13;;
8596;SDS011;4336;49.310;8.646;2023-12-29T01:41:22;15.00;;;13.50;;
8596;SDS011;4336;49.310;8.646;2023-12-29T01:46:20;15.10;;;13.17;;
8596;SDS011;4336;49.310;8.646;2023-12-29T01:48:46;17.27;;;15.57;;
8596;SDS011;4336;49.310;8.646;2023-12-29T01:51:13;17.00;;;15.20;;
8596;SDS011;4336;49.310;8.646;2023-12-29T01:53:39;17.07;;;14.53;;
8596;SDS011;4336;49.310;8.646;2023-12-29T01:56:05;18.37;;;15.13;;
8596;SDS011;4336;49.310;8.646;2023-12-29T01:58:32;14.67;;;13.10;;
8596;SDS011;4336;49.310;8.646;2023-12-29T02:00:59;16.30;;;14.70;;
8596;SDS011;4336;49.310;8.646;2023-12-29T02:03:27;18.17;;;15.53;;
8596;SDS011;4336;49.310;8.646;2023-12-29T02:05:54;16.53;;;14.93;;
8596;SDS011;4336;49.310;8.646;2023-12-29T02:08:23;15.60;;;13.83;;
8596;SDS011;4336;49.310;8.646;2023-12-29T02:10:50;15.67;;;14.17;;
8596;SDS011;4336;49.310;8.646;2023-12-29T02:13:16;16.87;;;13.87;;
8596;SDS011;4336;49.310;8.646;2023-12-29T02:15:42;14.07;;;12.63;;
8596;SDS011;4336;49.310;8.646;2023-12-29T02:18:10;17.60;;;15.13;;
8596;SDS011;4336;49.310;8.646;2023-12-29T02:20:40;15.87;;;14.27;;
8596;SDS011;4336;49.310;8.646;2023-12-29T02:23:06;15.90;;;14.20;;
8596;SDS011;4336;49.310;8.646;2023-12-29T02:25:33;16.13;;;14.53;;
8596;SDS011;4336;49.310;8.646;2023-12-29T02:30:43;16.07;;;14.57;;
8596;SDS011;4336;49.310;8.646;2023-12-29T02:33:13;16.10;;;14.40;;
8596;SDS011;4336;49.310;8.646;2023-12-29T02:35:43;15.93;;;12.63;;
8596;SDS011;4336;49.310;8.646;2023-12-29T02:38:10;16.30;;;14.70;;
8596;SDS011;4336;49.310;8.646;2023-12-29T02:40:37;16.20;;;14.70;;
8596;SDS011;4336;49.310;8.646;2023-12-29T02:43:04;16.33;;;14.73;;
8596;SDS011;4336;49.310;8.646;2023-12-29T02:45:30;16.77;;;15.00;;
8596;SDS011;4336;49.310;8.646;2023-12-29T02:47:56;17.13;;;15.33;;
8596;SDS011;4336;49.310;8.646;2023-12-29T02:50:23;15.87;;;14.37;;
8596;SDS011;4336;49.310;8.646;2023-12-29T02:52:50;15.70;;;14.20;;
8596;SDS011;4336;49.310;8.646;2023-12-29T02:55:16;16.73;;;14.27;;
8596;SDS011;4336;49.310;8.646;2023-12-29T02:57:42;15.40;;;13.90;;
8596;SDS011;4336;49.310;8.646;2023-12-29T03:00:08;16.57;;;14.37;;
8596;SDS011;4336;49.310;8.646;2023-12-29T03:02:35;16.63;;;14.93;;
8596;SDS011;4336;49.310;8.646;2023-12-29T03:05:01;15.23;;;13.70;;
8596;SDS011;4336;49.310;8.646;2023-12-29T03:07:27;17.40;;;14.63;;
8596;SDS011;4336;49.310;8.646;2023-12-29T03:09:53;16.47;;;14.87;;
8596;SDS011;4336;49.310;8.646;2023-12-29T03:12:20;16.30;;;14.70;;
8596;SDS011;4336;49.310;8.646;2023-12-29T03:14:46;18.87;;;15.67;;
8596;SDS011;4336;49.310;8.646;2023-12-29T03:17:12;17.10;;;15.40;;
8596;SDS011;4336;49.310;8.646;2023-12-29T03:19:39;17.43;;;15.30;;
8596;SDS011;4336;49.310;8.646;2023-12-29T03:22:05;20.27;;;16.07;;
8596;SDS011;4336;49.310;8.646;2023-12-29T03:24:31;16.73;;;15.13;;
8596;SDS011;4336;49.310;8.646;2023-12-29T03:26:57;18.37;;;15.10;;
8596;SDS011;4336;49.310;8.646;2023-12-29T03:29:23;17.17;;;14.80;;
8596;SDS011;4336;49.310;8.646;2023-12-29T03:31:52;18.40;;;16.60;;
8596;SDS011;4336;49.310;8.646;2023-12-29T03:34:19;18.00;;;16.20;;
8596;SDS011;4336;49.310;8.646;2023-12-29T03:36:45;18.80;;;16.87;;
8596;SDS011;4336;49.310;8.646;2023-12-29T03:39:11;18.13;;;16.23;;
8596;SDS011;4336;49.310;8.646;2023-12-29T03:41:37;18.83;;;14.90;;
8596;SDS011;4336;49.310;8.646;2023-12-29T03:44:03;18.60;;;16.70;;
8596;SDS011;4336;49.310;8.646;2023-12-29T03:46:31;18.40;;;16.50;;
8596;SDS011;4336;49.310;8.646;2023-12-29T03:48:58;17.80;;;15.90;;
8596;SDS011;4336;49.310;8.646;2023-12-29T03:51:24;18.77;;;15.93;;
8596;SDS011;4336;49.310;8.646;2023-12-29T03:53:50;16.93;;;14.67;;
8596;SDS011;4336;49.310;8.646;2023-12-29T03:56:17;18.13;;;16.33;;
8596;SDS011;4336;49.310;8.646;2023-12-29T03:58:43;17.83;;;16.10;;
8596;SDS011;4336;49.310;8.646;2023-12-29T04:01:10;17.23;;;15.43;;
8596;SDS011;4336;49.310;8.646;2023-12-29T04:03:37;20.80;;;16.77;;
8596;SDS011;4336;49.310;8.646;2023-12-29T04:06:03;17.43;;;15.70;;
8596;SDS011;4336;49.310;8.646;2023-12-29T04:08:29;18.77;;;16.83;;
8596;SDS011;4336;49.310;8.646;2023-12-29T04:10:56;17.97;;;15.70;;
8596;SDS011;4336;49.310;8.646;2023-12-29T04:13:22;17.03;;;15.13;;
8596;SDS011;4336;49.310;8.646;2023-12-29T04:15:48;15.60;;;13.97;;
8596;SDS011;4336;49.310;8.646;2023-12-29T04:18:14;17.97;;;16.07;;
8596;SDS011;4336;49.310;8.646;2023-12-29T04:20:40;19.00;;;16.90;;
8596;SDS011;4336;49.310;8.646;2023-12-29T04:23:06;17.87;;;15.90;;
8596;SDS011;4336;49.310;8.646;2023-12-29T04:25:33;16.80;;;15.00;;
8596;SDS011;4336;49.310;8.646;2023-12-29T04:27:59;15.67;;;14.07;;
8596;SDS011;4336;49.310;8.646;2023-12-29T04:30:26;16.97;;;15.37;;
8596;SDS011;4336;49.310;8.646;2023-12-29T04:32:54;16.40;;;14.70;;
8596;SDS011;4336;49.310;8.646;2023-12-29T04:35:20;16.43;;;14.67;;
8596;SDS011;4336;49.310;8.646;2023-12-29T04:37:47;17.07;;;15.27;;
8596;SDS011;4336;49.310;8.646;2023-12-29T04:40:14;18.57;;;15.03;;
8596;SDS011;4336;49.310;8.646;2023-12-29T04:42:40;15.80;;;14.03;;
8596;SDS011;4336;49.310;8.646;2023-12-29T04:45:06;17.70;;;15.87;;
8596;SDS011;4336;49.310;8.646;2023-12-29T04:47:33;15.40;;;13.87;;
8596;SDS011;4336;49.310;8.646;2023-12-29T04:49:59;16.17;;;14.57;;
8596;SDS011;4336;49.310;8.646;2023-12-29T04:52:25;14.43;;;13.03;;
8596;SDS011;4336;49.310;8.646;2023-12-29T04:54:54;14.80;;;13.07;;
8596;SDS011;4336;49.310;8.646;2023-12-29T04:57:20;14.73;;;13.33;;
8596;SDS011;4336;49.310;8.646;2023-12-29T04:59:46;15.90;;;13.87;;
8596;SDS011;4336;49.310;8.646;2023-12-29T05:02:12;14.30;;;13.03;;
8596;SDS011;4336;49.310;8.646;2023-12-29T05:04:39;13.77;;;12.43;;
8596;SDS011;4336;49.310;8.646;2023-12-29T05:07:05;15.43;;;13.17;;
8596;SDS011;4336;49.310;8.646;2023-12-29T05:09:31;12.80;;;11.70;;
8596;SDS011;4336;49.310;8.646;2023-12-29T05:11:57;11.07;;;9.97;;
8596;SDS011;4336;49.310;8.646;2023-12-29T05:14:23;13.67;;;12.47;;
8596;SDS011;4336;49.310;8.646;2023-12-29T05:16:49;13.57;;;12.13;;
8596;SDS011;4336;49.310;8.646;2023-12-29T05:19:15;13.67;;;12.43;;
8596;SDS011;4336;49.310;8.646;2023-12-29T05:21:42;13.00;;;11.80;;
8596;SDS011;4336;49.310;8.646;2023-12-29T05:24:08;14.43;;;12.57;;
8596;SDS011;4336;49.310;8.646;2023-12-29T05:26:34;13.73;;;12.43;;
8596;SDS011;4336;49.310;8.646;2023-12-29T05:29:00;13.80;;;12.50;;
8596;SDS011;4336;49.310;8.646;2023-12-29T05:31:26;11.57;;;10.47;;
8596;SDS011;4336;49.310;8.646;2023-12-29T05:33:52;12.27;;;11.13;;
8596;SDS011;4336;49.310;8.646;2023-12-29T05:36:20;14.30;;;13.00;;
8596;SDS011;4336;49.310;8.646;2023-12-29T05:38:46;13.77;;;12.47;;
8596;SDS011;4336;49.310;8.646;2023-12-29T05:41:13;13.67;;;12.27;;
8596;SDS011;4336;49.310;8.646;2023-12-29T05:43:39;13.80;;;12.50;;
8596;SDS011;4336;49.310;8.646;2023-12-29T05:46:09;13.50;;;12.27;;
8596;SDS011;4336;49.310;8.646;2023-12-29T05:48:36;13.50;;;12.10;;
8596;SDS011;4336;49.310;8.646;2023-12-29T05:51:09;13.00;;;11.77;;
8596;SDS011;4336;49.310;8.646;2023-12-29T05:53:35;14.57;;;13.27;;
8596;SDS011;4336;49.310;8.646;2023-12-29T05:56:01;14.97;;;13.00;;
8596;SDS011;4336;49.310;8.646;2023-12-29T05:58:28;14.80;;;13.27;;
8596;SDS011;4336;49.310;8.646;2023-12-29T06:00:57;15.67;;;14.27;;
8596;SDS011;4336;49.310;8.646;2023-12-29T06:03:26;19.50;;;14.27;;
8596;SDS011;4336;49.310;8.646;2023-12-29T06:05:53;15.07;;;13.47;;
8596;SDS011;4336;49.310;8.646;2023-12-29T06:08:19;14.40;;;13.10;;
8596;SDS011;4336;49.310;8.646;2023-12-29T06:10:46;14.33;;;12.93;;
8596;SDS011;4336;49.310;8.646;2023-12-29T06:13:12;15.40;;;13.80;;
8596;SDS011;4336;49.310;8.646;2023-12-29T06:15:38;15.30;;;13.70;;
8596;SDS011;4336;49.310;8.646;2023-12-29T06:18:04;14.70;;;13.30;;
8596;SDS011;4336;49.310;8.646;2023-12-29T06:20:30;15.47;;;14.07;;
8596;SDS011;4336;49.310;8.646;2023-12-29T06:22:56;15.00;;;13.60;;
8596;SDS011;4336;49.310;8.646;2023-12-29T06:25:23;15.50;;;13.47;;
8596;SDS011;4336;49.310;8.646;2023-12-29T06:27:49;15.03;;;13.43;;
8596;SDS011;4336;49.310;8.646;2023-12-29T06:30:15;14.73;;;13.33;;
8596;SDS011;4336;49.310;8.646;2023-12-29T06:32:41;13.67;;;12.37;;
8596;SDS011;4336;49.310;8.646;2023-12-29T06:35:07;16.43;;;14.67;;
8596;SDS011;4336;49.310;8.646;2023-12-29T06:37:38;19.17;;;14.17;;
8596;SDS011;4336;49.310;8.646;2023-12-29T06:40:05;21.23;;;16.83;;
8596;SDS011;4336;49.310;8.646;2023-12-29T06:42:32;21.80;;;17.33;;
8596;SDS011;4336;49.310;8.646;2023-12-29T06:44:58;17.03;;;14.13;;
8596;SDS011;4336;49.310;8.646;2023-12-29T06:47:24;19.47;;;15.50;;
8596;SDS011;4336;49.310;8.646;2023-12-29T06:49:50;19.63;;;15.47;;
8596;SDS011;4336;49.310;8.646;2023-12-29T06:52:17;17.57;;;15.67;;
8596;SDS011;4336;49.310;8.646;2023-12-29T06:54:43;19.13;;;16.97;;
8596;SDS011;4336;49.310;8.646;2023-12-29T06:57:09;24.37;;;17.73;;
8596;SDS011;4336;49.310;8.646;2023-12-29T06:59:35;17.33;;;15.50;;
8596;SDS011;4336;49.310;8.646;2023-12-29T07:02:02;17.00;;;15.20;;
8596;SDS011;4336;49.310;8.646;2023-12-29T07:04:29;17.50;;;15.60;;
8596;SDS011;4336;49.310;8.646;2023-12-29T07:06:55;18.27;;;15.43;;
8596;SDS011;4336;49.310;8.646;2023-12-29T07:09:22;16.03;;;14.20;;
8596;SDS011;4336;49.310;8.646;2023-12-29T07:11:48;15.03;;;13.50;;
8596;SDS011;4336;49.310;8.646;2023-12-29T07:14:15;15.40;;;13.83;;
8596;SDS011;4336;49.310;8.646;2023-12-29T07:16:42;15.47;;;13.97;;
8596;SDS011;4336;49.310;8.646;2023-12-29T07:19:08;22.67;;;19.53;;
8596;SDS011;4336;49.310;8.646;2023-12-29T07:21:34;17.30;;;15.50;;
8596;SDS011;4336;49.310;8.646;2023-12-29T07:24:00;19.03;;;17.00;;
8596;SDS011;4336;49.310;8.646;2023-12-29T07:26:26;24.77;;;20.23;;
8596;SDS011;4336;49.310;8.646;2023-12-29T07:28:53;16.03;;;14.43;;
8596;SDS011;4336;49.310;8.646;2023-12-29T07:31:19;14.77;;;13.37;;
8596;SDS011;4336;49.310;8.646;2023-12-29T07:33:46;18.03;;;14.20;;
8596;SDS011;4336;49.310;8.646;2023-12-29T07:36:12;15.37;;;13.87;;
8596;SDS011;4336;49.310;8.646;2023-12-29T07:38:38;15.63;;;14.03;;
8596;SDS011;4336;49.310;8.646;2023-12-29T07:41:04;16.67;;;14.97;;
8596;SDS011;4336;49.310;8.646;2023-12-29T07:43:31;15.90;;;14.37;;
8596;SDS011;4336;49.310;8.646;2023-12-29T07:45:57;19.23;;;14.43;;
8596;SDS011;4336;49.310;8.646;2023-12-29T07:48:23;17.17;;;14.93;;
8596;SDS011;4336;49.310;8.646;2023-12-29T07:50:50;15.57;;;14.07;;
8596;SDS011;4336;49.310;8.646;2023-12-29T07:53:16;16.80;;;13.93;;
8596;SDS011;4336;49.310;8.646;2023-12-29T07:55:42;15.50;;;13.57;;
8596;SDS011;4336;49.310;8.646;2023-12-29T07:58:09;14.90;;;13.57;;
8596;SDS011;4336;49.310;8.646;2023-12-29T08:00:36;16.37;;;14.67;;
8596;SDS011;4336;49.310;8.646;2023-12-29T08:03:03;16.30;;;14.70;;
8596;SDS011;4336;49.310;8.646;2023-12-29T08:05:30;14.60;;;13.20;;
8596;SDS011;4336;49.310;8.646;2023-12-29T08:07:56;15.43;;;13.93;;
8596;SDS011;4336;49.310;8.646;2023-12-29T08:10:23;16.50;;;13.87;;
8596;SDS011;4336;49.310;8.646;2023-12-29T08:12:49;15.13;;;13.73;;
8596;SDS011;4336;49.310;8.646;2023-12-29T08:15:15;14.77;;;13.27;;
8596;SDS011;4336;49.310;8.646;2023-12-29T08:17:42;15.10;;;13.50;;
8596;SDS011;4336;49.310;8.646;2023-12-29T08:20:08;13.07;;;11.87;;
8596;SDS011;4336;49.310;8.646;2023-12-29T08:22:35;15.20;;;13.70;;
8596;SDS011;4336;49.310;8.646;2023-12-29T08:25:01;30.33;;;27.13;;
8596;SDS011;4336;49.310;8.646;2023-12-29T08:27:27;15.10;;;13.70;;
8596;SDS011;4336;49.310;8.646;2023-12-29T08:29:53;19.43;;;16.87;;
8596;SDS011;4336;49.310;8.646;2023-12-29T08:32:20;21.33;;;17.47;;
8596;SDS011;4336;49.310;8.646;2023-12-29T08:34:46;27.00;;;18.90;;
8596;SDS011;4336;49.310;8.646;2023-12-29T08:37:13;19.63;;;16.40;;
8596;SDS011;4336;49.310;8.646;2023-12-29T08:39:45;25.57;;;17.77;;
8596;SDS011;4336;49.310;8.646;2023-12-29T08:42:11;29.40;;;19.30;;
8596;SDS011;4336;49.310;8.646;2023-12-29T08:44:37;20.73;;;15.87;;
8596;SDS011;4336;49.310;8.646;2023-12-29T08:47:03;32.43;;;21.60;;
8596;SDS011;4336;49.310;8.646;2023-12-29T08:49:33;24.40;;;17.60;;
8596;SDS011;4336;49.310;8.646;2023-12-29T08:51:59;14.77;;;13.27;;
8596;SDS011;4336;49.310;8.646;2023-12-29T08:54:25;16.63;;;14.70;;
8596;SDS011;4336;49.310;8.646;2023-12-29T08:56:52;25.97;;;17.67;;
8596;SDS011;4336;49.310;8.646;2023-12-29T08:59:18;27.70;;;21.87;;
8596;SDS011;4336;49.310;8.646;2023-12-29T09:01:44;21.20;;;15.90;;
8596;SDS011;4336;49.310;8.646;2023-12-29T09:04:10;12.20;;;10.97;;
8596;SDS011;4336;49.310;8.646;2023-12-29T09:06:36;12.93;;;11.77;;
8596;SDS011;4336;49.310;8.646;2023-12-29T09:09:01;12.83;;;10.83;;
8596;SDS011;4336;49.310;8.646;2023-12-29T09:11:28;11.70;;;10.70;;
8596;SDS011;4336;49.310;8.646;2023-12-29T09:13:54;11.60;;;10.70;;
8596;SDS011;4336;49.310;8.646;2023-12-29T09:16:19;11.63;;;10.57;;
8596;SDS011;4336;49.310;8.646;2023-12-29T09:18:45;11.37;;;10.37;;
8596;SDS011;4336;49.310;8.646;2023-12-29T09:21:11;9.83;;;8.83;;
8596;SDS011;4336;49.310;8.646;2023-12-29T09:23:37;10.97;;;10.07;;
8596;SDS011;4336;49.310;8.646;2023-12-29T09:26:04;10.50;;;9.60;;
8596;SDS011;4336;49.310;8.646;2023-12-29T09:28:32;12.97;;;11.70;;
8596;SDS011;4336;49.310;8.646;2023-12-29T09:30:59;11.53;;;10.53;;
8596;SDS011;4336;49.310;8.646;2023-12-29T09:33:25;11.40;;;10.30;;
8596;SDS011;4336;49.310;8.646;2023-12-29T09:35:51;9.70;;;8.77;;
8596;SDS011;4336;49.310;8.646;2023-12-29T09:38:17;9.27;;;8.47;;
8596;SDS011;4336;49.310;8.646;2023-12-29T09:40:44;11.63;;;10.57;;
8596;SDS011;4336;49.310;8.646;2023-12-29T09:43:10;10.47;;;9.57;;
8596;SDS011;4336;49.310;8.646;2023-12-29T09:45:37;10.17;;;9.37;;
8596;SDS011;4336;49.310;8.646;2023-12-29T09:48:05;10.30;;;9.27;;
8596;SDS011;4336;49.310;8.646;2023-12-29T09:50:32;11.30;;;10.17;;
8596;SDS011;4336;49.310;8.646;2023-12-29T09:53:00;11.03;;;10.03;;
8596;SDS011;4336;49.310;8.646;2023-12-29T09:55:27;9.60;;;8.67;;
8596;SDS011;4336;49.310;8.646;2023-12-29T09:57:53;9.87;;;7.87;;
8596;SDS011;4336;49.310;8.646;2023-12-29T10:00:20;10.83;;;9.73;;
8596;SDS011;4336;49.310;8.646;2023-12-29T10:02:47;10.23;;;9.23;;
8596;SDS011;4336;49.310;8.646;2023-12-29T10:05:17;10.47;;;9.60;;
8596;SDS011;4336;49.310;8.646;2023-12-29T10:07:43;10.97;;;9.87;;
8596;SDS011;4336;49.310;8.646;2023-12-29T10:10:11;10.43;;;9.53;;
8596;SDS011;4336;49.310;8.646;2023-12-29T10:12:40;10.87;;;9.77;;
8596;SDS011;4336;49.310;8.646;2023-12-29T10:15:10;10.53;;;9.53;;
8596;SDS011;4336;49.310;8.646;2023-12-29T10:17:51;10.60;;;9.60;;
8596;SDS011;4336;49.310;8.646;2023-12-29T10:20:55;9.67;;;8.87;;
8596;SDS011;4336;49.310;8.646;2023-12-29T10:23:26;9.13;;;8.13;;
8596;SDS011;4336;49.310;8.646;2023-12-29T10:26:14;10.83;;;9.93;;
8596;SDS011;4336;49.310;8.646;2023-12-29T10:28:40;11.10;;;10.10;;
8596;SDS011;4336;49.310;8.646;2023-12-29T10:31:06;8.37;;;7.70;;
8596;SDS011;4336;49.310;8.646;2023-12-29T10:33:32;11.20;;;10.20;;
8596;SDS011;4336;49.310;8.646;2023-12-29T10:35:59;10.63;;;9.57;;
8596;SDS011;4336;49.310;8.646;2023-12-29T10:38:28;11.10;;;9.70;;
8596;SDS011;4336;49.310;8.646;2023-12-29T10:40:54;12.37;;;7.47;;
8596;SDS011;4336;49.310;8.646;2023-12-29T10:43:24;10.37;;;9.57;;
8596;SDS011;4336;49.310;8.646;2023-12-29T10:45:57;9.57;;;8.80;;
8596;SDS011;4336;49.310;8.646;2023-12-29T10:48:31;9.90;;;9.00;;
8596;SDS011;4336;49.310;8.646;2023-12-29T10:50:57;10.43;;;9.33;;
8596;SDS011;4336;49.310;8.646;2023-12-29T10:53:23;13.00;;;11.80;;
8596;SDS011;4336;49.310;8.646;2023-12-29T10:55:49;10.60;;;9.70;;
8596;SDS011;4336;49.310;8.646;2023-12-29T10:58:18;11.20;;;10.27;;
8596;SDS011;4336;49.310;8.646;2023-12-29T11:00:45;12.63;;;11.40;;
8596;SDS011;4336;49.310;8.646;2023-12-29T11:03:14;10.00;;;9.20;;
8596;SDS011;4336;49.310;8.646;2023-12-29T11:05:41;10.47;;;9.67;;
8596;SDS011;4336;49.310;8.646;2023-12-29T11:08:17;12.37;;;11.30;;
8596;SDS011;4336;49.310;8.646;2023-12-29T11:10:44;11.57;;;10.53;;
8596;SDS011;4336;49.310;8.646;2023-12-29T11:13:11;10.13;;;9.33;;
8596;SDS011;4336;49.310;8.646;2023-12-29T11:15:42;9.90;;;9.10;;
8596;SDS011;4336;49.310;8.646;2023-12-29T11:18:11;10.43;;;9.43;;
8596;SDS011;4336;49.310;8.646;2023-12-29T11:20:42;11.33;;;10.43;;
8596;SDS011;4336;49.310;8.646;2023-12-29T11:23:10;9.50;;;8.70;;
8596;SDS011;4336;49.310;8.646;2023-12-29T11:25:38;9.47;;;8.67;;
8596;SDS011;4336;49.310;8.646;2023-12-29T11:28:05;10.57;;;9.77;;
8596;SDS011;4336;49.310;8.646;2023-12-29T11:30:32;10.80;;;9.90;;
8596;SDS011;4336;49.310;8.646;2023-12-29T11:32:59;9.87;;;9.07;;
8596;SDS011;4336;49.310;8.646;2023-12-29T11:35:44;10.43;;;9.43;;
8596;SDS011;4336;49.310;8.646;2023-12-29T11:38:28;9.73;;;9.03;;
8596;SDS011;4336;49.310;8.646;2023-12-29T11:41:17;10.77;;;9.73;;
8596;SDS011;4336;49.310;8.646;2023-12-29T11:43:59;8.60;;;7.97;;
8596;SDS011;4336;49.310;8.646;2023-12-29T11:46:32;8.93;;;8.23;;
8596;SDS011;4336;49.310;8.646;2023-12-29T11:48:58;8.20;;;7.57;;
8596;SDS011;4336;49.310;8.646;2023-12-29T11:53:58;9.40;;;8.57;;
8596;SDS011;4336;49.310;8.646;2023-12-29T11:56:30;8.67;;;8.07;;
8596;SDS011;4336;49.310;8.646;2023-12-29T11:59:12;10.17;;;9.10;;
8596;SDS011;4336;49.310;8.646;2023-12-29T12:01:51;11.07;;;9.97;;
8596;SDS011;4336;49.310;8.646;2023-12-29T12:07:15;8.07;;;7.47;;
8596;SDS011;4336;49.310;8.646;2023-12-29T12:09:46;9.03;;;8.27;;
8596;SDS011;4336;49.310;8.646;2023-12-29T12:15:03;7.80;;;7.20;;
8596;SDS011;4336;49.310;8.646;2023-12-29T12:17:33;9.23;;;8.37;;
8596;SDS011;4336;49.310;8.646;2023-12-29T12:20:00;8.17;;;7.57;;
8596;SDS011;4336;49.310;8.646;2023-12-29T12:22:30;12.40;;;8.93;;
8596;SDS011;4336;49.310;8.646;2023-12-29T12:24:57;8.67;;;8.00;;
8596;SDS011;4336;49.310;8.646;2023-12-29T12:27:26;8.77;;;8.00;;
8596;SDS011;4336;49.310;8.646;2023-12-29T12:29:56;8.90;;;8.20;;
8596;SDS011;4336;49.310;8.646;2023-12-29T12:32:24;9.13;;;8.43;;
8596;SDS011;4336;49.310;8.646;2023-12-29T12:34:51;8.07;;;7.37;;
8596;SDS011;4336;49.310;8.646;2023-12-29T12:37:21;9.53;;;8.70;;
8596;SDS011;4336;49.310;8.646;2023-12-29T12:39:53;9.37;;;8.57;;
8596;SDS011;4336;49.310;8.646;2023-12-29T12:42:20;8.67;;;7.97;;
8596;SDS011;4336;49.310;8.646;2023-12-29T12:44:52;8.93;;;8.23;;
8596;SDS011;4336;49.310;8.646;2023-12-29T12:47:25;8.07;;;7.47;;
8596;SDS011;4336;49.310;8.646;2023-12-29T12:49:52;8.53;;;7.83;;
8596;SDS011;4336;49.310;8.646;2023-12-29T12:52:18;8.70;;;7.90;;
8596;SDS011;4336;49.310;8.646;2023-12-29T12:54:44;9.63;;;8.77;;
8596;SDS011;4336;49.310;8.646;2023-12-29T12:57:10;8.53;;;7.83;;
8596;SDS011;4336;49.310;8.646;2023-12-29T12:59:36;14.10;;;9.13;;
8596;SDS011;4336;49.310;8.646;2023-12-29T13:02:02;9.17;;;8.47;;
8596;SDS011;4336;49.310;8.646;2023-12-29T13:04:28;9.80;;;8.90;;
8596;SDS011;4336;49.310;8.646;2023-12-29T13:06:54;9.37;;;8.63;;
8596;SDS011;4336;49.310;8.646;2023-12-29T13:09:19;9.70;;;8.80;;
8596;SDS011;4336;49.310;8.646;2023-12-29T13:11:45;8.90;;;8.10;;
8596;SDS011;4336;49.310;8.646;2023-12-29T13:14:23;9.60;;;8.90;;
8596;SDS011;4336;49.310;8.646;2023-12-29T13:16:50;10.17;;;9.27;;
8596;SDS011;4336;49.310;8.646;2023-12-29T13:19:20;9.60;;;8.90;;
8596;SDS011;4336;49.310;8.646;2023-12-29T13:21:50;8.57;;;7.87;;
8596;SDS011;4336;49.310;8.646;2023-12-29T13:24:20;11.40;;;10.40;;
8596;SDS011;4336;49.310;8.646;2023-12-29T13:26:47;9.97;;;9.17;;
8596;SDS011;4336;49.310;8.646;2023-12-29T13:29:21;7.00;;;6.43;;
8596;SDS011;4336;49.310;8.646;2023-12-29T13:31:54;7.63;;;7.03;;
8596;SDS011;4336;49.310;8.646;2023-12-29T13:34:34;6.57;;;6.07;;
8596;SDS011;4336;49.310;8.646;2023-12-29T13:37:21;8.57;;;7.80;;
8596;SDS011;4336;49.310;8.646;2023-12-29T13:40:01;12.83;;;8.80;;
8596;SDS011;4336;49.310;8.646;2023-12-29T13:42:34;11.03;;;9.70;;
8596;SDS011;4336;49.310;8.646;2023-12-29T13:45:00;8.60;;;7.90;;
8596;SDS011;4336;49.310;8.646;2023-12-29T13:47:26;10.47;;;9.57;;
8596;SDS011;4336;49.310;8.646;2023-12-29T13:49:52;9.17;;;8.37;;
8596;SDS011;4336;49.310;8.646;2023-12-29T13:52:18;8.53;;;7.77;;
8596;SDS011;4336;49.310;8.646;2023-12-29T13:54:45;8.97;;;8.27;;
8596;SDS011;4336;49.310;8.646;2023-12-29T13:57:12;9.43;;;8.63;;
8596;SDS011;4336;49.310;8.646;2023-12-29T13:59:38;9.43;;;8.67;;
8596;SDS011;4336;49.310;8.646;2023-12-29T14:04:46;9.93;;;9.03;;
8596;SDS011;4336;49.310;8.646;2023-12-29T14:07:12;10.03;;;9.13;;
8596;SDS011;4336;49.310;8.646;2023-12-29T14:09:38;7.43;;;6.83;;
8596;SDS011;4336;49.310;8.646;2023-12-29T14:12:05;11.87;;;9.53;;
8596;SDS011;4336;49.310;8.646;2023-12-29T14:14:31;9.87;;;9.07;;
8596;SDS011;4336;49.310;8.646;2023-12-29T14:16:57;10.97;;;9.90;;
8596;SDS011;4336;49.310;8.646;2023-12-29T14:19:23;9.43;;;8.60;;
8596;SDS011;4336;49.310;8.646;2023-12-29T14:21:50;10.90;;;9.50;;
8596;SDS011;4336;49.310;8.646;2023-12-29T14:24:17;8.67;;;7.97;;
8596;SDS011;4336;49.310;8.646;2023-12-29T14:29:19;10.60;;;9.70;;
8596;SDS011;4336;49.310;8.646;2023-12-29T14:31:45;11.77;;;10.67;;
8596;SDS011;4336;49.310;8.646;2023-12-29T14:34:16;10.37;;;9.40;;
8596;SDS011;4336;49.310;8.646;2023-12-29T14:36:42;13.13;;;11.87;;
8596;SDS011;4336;49.310;8.646;2023-12-29T14:39:11;16.97;;;14.83;;
8596;SDS011;4336;49.310;8.646;2023-12-29T14:41:41;11.77;;;10.77;;
8596;SDS011;4336;49.310;8.646;2023-12-29T14:44:07;10.20;;;9.30;;
8596;SDS011;4336;49.310;8.646;2023-12-29T14:46:36;10.67;;;9.87;;
8596;SDS011;4336;49.310;8.646;2023-12-29T14:49:03;9.43;;;8.63;;
8596;SDS011;4336;49.310;8.646;2023-12-29T14:51:29;9.40;;;8.50;;
8596;SDS011;4336;49.310;8.646;2023-12-29T14:53:55;13.17;;;11.87;;
8596;SDS011;4336;49.310;8.646;2023-12-29T14:56:20;10.53;;;9.50;;
8596;SDS011;4336;49.310;8.646;2023-12-29T14:58:46;12.23;;;11.03;;
8596;SDS011;4336;49.310;8.646;2023-12-29T15:01:12;11.03;;;9.97;;
8596;SDS011;4336;49.310;8.646;2023-12-29T15:03:39;10.13;;;9.13;;
8596;SDS011;4336;49.310;8.646;2023-12-29T15:06:05;11.50;;;10.33;;
8596;SDS011;4336;49.310;8.646;2023-12-29T15:08:31;8.20;;;7.40;;
8596;SDS011;4336;49.310;8.646;2023-12-29T15:11:03;10.10;;;7.97;;
8596;SDS011;4336;49.310;8.646;2023-12-29T15:13:32;8.53;;;7.83;;
8596;SDS011;4336;49.310;8.646;2023-12-29T15:15:58;9.67;;;8.77;;